Time;durP1;ratioP1;P1;durP2;ratioP2;P2;SDS_P1;SDS_P2;PMS_P1;PMS_P2;Temp;Humidity;BMP_temperature;BMP_pressure;BME280_temperature;BME280_humidity;BME280_pressure;Samples;Min_cycle;Max_cycle;Signal;HPM_P1;HPM_P2
2020/12/23 00:01:21;;;;;;;4.00;2.27;;;;;;;5.47;92.90;96652.78;1787638;80;21162;-88
2020/12/23 00:03:48;;;;;;;2.83;1.82;;;;;;;5.46;93.08;96660.39;1787667;80;21143;-89
2020/12/23 00:06:15;;;;;;;3.83;2.40;;;;;;;5.43;93.06;96653.00;1787624;80;21147;-89
2020/12/23 00:08:42;;;;;;;2.47;1.72;;;;;;;5.38;93.21;96632.71;1787948;80;21262;-89
2020/12/23 00:11:09;;;;;;;2.60;1.75;;;;;;;5.38;93.26;96640.59;1787595;80;21131;-88
2020/12/23 00:13:37;;;;;;;4.22;2.27;;;;;;;5.38;93.41;96637.97;1787651;80;21483;-88
2020/12/23 00:16:07;;;;;;;3.08;1.70;;;;;;;5.39;93.47;96651.39;1787542;80;21108;-89
2020/12/23 00:18:34;;;;;;;2.52;2.08;;;;;;;5.42;93.67;96649.58;1787968;80;21293;-89
2020/12/23 00:21:01;;;;;;;2.75;1.72;;;;;;;5.47;93.69;96655.41;1787177;80;21273;-88
2020/12/23 00:23:28;;;;;;;2.22;1.67;;;;;;;5.49;93.81;96646.75;1787643;80;21160;-89
2020/12/23 00:25:55;;;;;;;3.22;1.57;;;;;;;5.52;93.80;96647.61;1787552;80;21108;-88
2020/12/23 00:28:22;;;;;;;4.20;1.75;;;;;;;5.53;93.67;96621.06;1787638;80;21135;-89
2020/12/23 00:30:49;;;;;;;2.65;1.85;;;;;;;5.55;93.63;96632.65;1787609;80;21131;-89
2020/12/23 00:33:16;;;;;;;4.40;2.15;;;;;;;5.58;93.52;96655.30;1787755;80;21517;-88
2020/12/23 00:35:43;;;;;;;2.45;1.82;;;;;;;5.57;93.49;96662.12;1787691;80;21146;-89
2020/12/23 00:38:09;;;;;;;3.20;2.22;;;;;;;5.57;93.45;96662.12;1787595;80;21143;-89
2020/12/23 00:40:36;;;;;;;3.35;1.92;;;;;;;5.57;93.45;96661.59;1787634;80;21112;-88
2020/12/23 00:43:03;;;;;;;2.20;1.70;;;;;;;5.55;93.37;96669.46;1787601;80;21159;-89
2020/12/23 00:45:30;;;;;;;3.62;1.90;;;;;;;5.52;93.35;96669.95;1787855;80;21297;-89
2020/12/23 00:47:57;;;;;;;2.45;1.82;;;;;;;5.50;93.43;96664.94;1787237;80;21156;-89
2020/12/23 00:50:24;;;;;;;1.85;1.52;;;;;;;5.52;93.40;96669.44;1787248;80;21135;-88
2020/12/23 00:52:51;;;;;;;1.52;1.10;;;;;;;5.55;93.38;96672.09;1787209;80;21127;-89
2020/12/23 00:55:18;;;;;;;1.62;1.22;;;;;;;5.57;93.34;96667.38;1787234;80;21159;-88
2020/12/23 00:57:45;;;;;;;3.10;1.40;;;;;;;5.57;93.30;96679.21;1787163;80;21136;-88
2020/12/23 01:00:12;;;;;;;3.47;1.35;;;;;;;5.58;93.26;96689.48;1787234;80;21139;-88
2020/12/23 01:02:39;;;;;;;3.70;1.90;;;;;;;5.62;93.19;96698.98;1787266;80;21527;-88
2020/12/23 01:05:06;;;;;;;2.42;1.57;;;;;;;5.64;93.16;96699.56;1787349;80;21116;-89
2020/12/23 01:07:33;;;;;;;3.12;2.17;;;;;;;5.63;93.16;96698.77;1787160;80;21156;-89
2020/12/23 01:09:59;;;;;;;3.40;2.40;;;;;;;5.66;93.22;96709.31;1787179;80;21161;-89
2020/12/23 01:12:26;;;;;;;3.27;2.35;;;;;;;5.68;93.15;96712.49;1787348;80;21116;-88
2020/12/23 01:14:53;;;;;;;3.10;2.08;;;;;;;5.72;93.28;96718.84;1787245;80;21159;-88
2020/12/23 01:17:20;;;;;;;3.42;2.25;;;;;;;5.75;93.21;96709.14;1787145;80;21127;-88
2020/12/23 01:19:47;;;;;;;2.83;1.87;;;;;;;5.76;93.21;96706.79;1786680;80;21143;-88
2020/12/23 01:22:14;;;;;;;2.95;2.25;;;;;;;5.77;93.18;96701.83;1787224;80;21554;-89
2020/12/23 01:24:41;;;;;;;3.15;2.00;;;;;;;5.79;93.16;96702.38;1787170;80;21112;-88
2020/12/23 01:27:07;;;;;;;4.03;2.00;;;;;;;5.80;92.97;96699.23;1787319;80;21152;-89
2020/12/23 01:29:34;;;;;;;2.52;1.47;;;;;;;5.83;92.86;96702.67;1787194;80;21189;-89
2020/12/23 01:32:01;;;;;;;3.22;1.62;;;;;;;5.84;92.61;96699.80;1787158;80;21132;-88
2020/12/23 01:34:28;;;;;;;2.98;1.62;;;;;;;5.84;92.52;96697.69;1787236;80;21143;-88
2020/12/23 01:36:55;;;;;;;3.25;2.37;;;;;;;5.86;92.41;96708.23;1787249;80;21534;-88
2020/12/23 01:39:22;;;;;;;2.83;2.02;;;;;;;5.88;92.28;96708.78;1787270;80;21144;-88
2020/12/23 01:41:57;;;;;;;4.28;2.00;;;;;;;5.87;92.16;96707.19;1787280;80;21130;-89
2020/12/23 01:44:24;;;;;;;2.52;2.08;;;;;;;5.86;92.13;96700.86;1787305;80;21163;-89
2020/12/23 01:46:52;;;;;;;3.12;1.95;;;;;;;5.86;92.05;96706.13;1787133;80;21152;-88
2020/12/23 01:49:19;;;;;;;3.30;1.70;;;;;;;5.86;92.08;96688.50;1786866;80;21144;-89
2020/12/23 01:51:47;;;;;;;2.33;1.98;;;;;;;5.85;92.05;96676.39;1787345;80;21155;-88
2020/12/23 01:54:15;;;;;;;2.67;2.00;;;;;;;5.85;92.08;96682.97;1787213;80;21140;-89
2020/12/23 01:56:43;;;;;;;3.20;2.20;;;;;;;5.91;92.07;96679.41;1787154;80;21135;-89
2020/12/23 01:59:11;;;;;;;3.42;2.47;;;;;;;5.94;91.98;96671.53;1787270;80;21140;-89
2020/12/23 02:01:50;;;;;;;1.98;1.50;;;;;;;5.97;91.86;96667.61;1787232;80;21135;-89
2020/12/23 02:04:17;;;;;;;2.15;1.50;;;;;;;5.95;91.77;96671.28;1761266;80;21151;-89
2020/12/23 02:06:44;;;;;;;3.22;1.85;;;;;;;5.95;91.75;96651.55;1787217;80;21148;-88
2020/12/23 02:09:12;;;;;;;1.85;1.72;;;;;;;5.96;91.79;96660.23;1787113;80;21151;-90
2020/12/23 02:11:39;;;;;;;2.67;2.33;;;;;;;5.96;91.80;96672.08;1760983;80;21139;-88
2020/12/23 02:14:07;;;;;;;3.33;2.12;;;;;;;5.96;91.79;96658.92;1787206;80;21144;-89
2020/12/23 02:16:34;;;;;;;3.02;2.25;;;;;;;5.99;91.82;96668.94;1787161;80;21518;-89
2020/12/23 02:19:01;;;;;;;2.40;1.55;;;;;;;6.04;91.79;96662.93;1787144;80;21176;-89
2020/12/23 02:21:29;;;;;;;2.42;1.80;;;;;;;6.07;91.67;96667.72;1787261;80;21483;-89
2020/12/23 02:23:56;;;;;;;2.10;1.90;;;;;;;6.09;91.62;96657.21;1787211;80;21155;-88
2020/12/23 02:26:23;;;;;;;2.70;2.00;;;;;;;6.10;91.52;96656.17;1787132;80;21151;-88
2020/12/23 02:28:50;;;;;;;3.92;3.02;;;;;;;6.11;91.47;96664.86;1787123;80;21112;-88
2020/12/23 02:31:17;;;;;;;1.98;1.72;;;;;;;6.09;91.49;96666.95;1787145;80;21104;-88
2020/12/23 02:33:43;;;;;;;6.55;1.77;;;;;;;6.13;91.51;96660.14;1787116;80;21136;-88
2020/12/23 02:36:10;;;;;;;2.70;1.80;;;;;;;6.18;91.43;96670.19;1787310;80;21132;-88
2020/12/23 02:38:38;;;;;;;3.80;2.00;;;;;;;6.21;91.32;96668.39;1787102;80;21147;-88
2020/12/23 02:41:05;;;;;;;3.33;2.00;;;;;;;6.21;91.26;96664.97;1787146;80;21136;-89
2020/12/23 02:43:32;;;;;;;2.67;2.17;;;;;;;6.20;91.17;96667.33;1787119;80;21551;-88
2020/12/23 02:45:59;;;;;;;2.45;2.20;;;;;;;6.19;91.22;96664.40;1787151;80;21183;-89
2020/12/23 02:48:26;;;;;;;2.10;1.90;;;;;;;6.20;91.20;96669.44;1787479;80;21153;-88
2020/12/23 02:50:52;;;;;;;4.37;2.27;;;;;;;6.20;91.21;96669.44;1787727;80;21158;-88
2020/12/23 02:53:19;;;;;;;3.70;2.22;;;;;;;6.22;91.25;96666.55;1787719;80;21277;-88
2020/12/23 02:55:46;;;;;;;3.27;1.70;;;;;;;6.24;91.19;96670.52;1787647;80;21135;-88
2020/12/23 02:58:13;;;;;;;2.37;1.57;;;;;;;6.27;91.16;96663.96;1787699;80;21151;-88
2020/12/23 03:00:40;;;;;;;3.47;1.57;;;;;;;6.29;91.06;96661.88;1764378;80;21285;-88
2020/12/23 03:03:07;;;;;;;3.10;2.30;;;;;;;6.28;90.92;96664.23;1759043;81;21147;-89
2020/12/23 03:05:33;;;;;;;2.52;2.30;;;;;;;6.27;90.91;96664.48;1759020;81;21306;-90
2020/12/23 03:08:00;;;;;;;2.42;1.85;;;;;;;6.27;90.89;96660.53;1787882;80;21288;-88
2020/12/23 03:10:27;;;;;;;3.33;2.42;;;;;;;6.27;90.88;96662.64;1757013;82;21498;-89
2020/12/23 03:12:54;;;;;;;3.15;1.95;;;;;;;6.29;90.87;96661.08;1756882;82;21154;-89
2020/12/23 03:15:21;;;;;;;3.00;1.52;;;;;;;6.31;90.88;96653.20;1787964;80;21288;-88
2020/12/23 03:17:48;;;;;;;3.30;2.30;;;;;;;6.31;90.78;96636.08;1756997;82;21139;-89
2020/12/23 03:20:14;;;;;;;3.92;1.80;;;;;;;6.32;90.72;96646.88;1765853;81;21135;-89
2020/12/23 03:22:41;;;;;;;3.67;2.35;;;;;;;6.30;90.68;96647.66;1772286;81;21141;-90
2020/12/23 03:25:08;;;;;;;2.27;1.25;;;;;;;6.30;90.68;96644.23;1740477;82;21155;-89
2020/12/23 03:27:35;;;;;;;3.87;2.37;;;;;;;6.29;90.70;96644.76;1772749;81;21478;-89
2020/12/23 03:30:03;;;;;;;4.05;2.10;;;;;;;6.32;90.68;96652.15;1772308;80;21517;-89
2020/12/23 03:32:29;;;;;;;2.10;1.40;;;;;;;6.35;90.78;96652.20;1740471;82;21159;-89
2020/12/23 03:34:56;;;;;;;1.77;1.30;;;;;;;6.39;90.75;96643.54;1772320;81;21155;-89
2020/12/23 03:37:23;;;;;;;4.17;2.10;;;;;;;6.40;90.80;96649.08;1740636;82;21163;-89
2020/12/23 03:39:50;;;;;;;3.00;2.20;;;;;;;6.41;90.87;96658.56;1772653;81;21138;-89
2020/12/23 03:42:17;;;;;;;2.27;1.82;;;;;;;6.41;90.86;96658.56;1772304;81;21139;-90
2020/12/23 03:44:45;;;;;;;2.15;1.60;;;;;;;6.42;90.85;96669.36;1740510;82;21546;-89
2020/12/23 03:47:11;;;;;;;3.65;2.30;;;;;;;6.45;90.89;96671.49;1772610;81;21130;-89
2020/12/23 03:49:38;;;;;;;4.17;2.15;;;;;;;6.49;90.91;96673.92;1737384;81;21146;-89
2020/12/23 03:52:05;;;;;;;2.00;1.77;;;;;;;6.52;90.82;96673.94;1758250;81;21143;-89
2020/12/23 03:54:32;;;;;;;2.72;1.75;;;;;;;6.54;90.85;96670.53;1736804;83;21162;-88
2020/12/23 03:56:59;;;;;;;2.17;1.70;;;;;;;6.61;90.91;96675.05;1736796;82;21126;-89
2020/12/23 03:59:26;;;;;;;3.02;2.33;;;;;;;6.67;90.83;96674.59;1736836;82;21527;-89
2020/12/23 04:01:53;;;;;;;3.12;2.20;;;;;;;6.71;90.75;96673.03;1736784;83;21149;-89
2020/12/23 04:04:19;;;;;;;4.00;2.10;;;;;;;6.74;90.63;96669.88;1736905;83;21155;-89
2020/12/23 04:06:46;;;;;;;2.55;1.87;;;;;;;6.74;90.49;96668.56;1736800;82;21106;-89
2020/12/23 04:09:13;;;;;;;2.08;1.60;;;;;;;6.70;90.46;96670.92;1736771;83;21195;-90
2020/12/23 04:11:40;;;;;;;2.80;1.90;;;;;;;6.70;90.44;96664.86;1736823;83;21131;-89
2020/12/23 04:14:07;;;;;;;3.22;1.90;;;;;;;6.68;90.41;96653.78;1736783;83;21150;-89
2020/12/23 04:16:34;;;;;;;3.30;2.20;;;;;;;6.65;90.50;96652.45;1736737;83;21114;-89
2020/12/23 04:19:02;;;;;;;2.90;1.98;;;;;;;6.63;90.46;96644.53;1737383;81;21535;-89
2020/12/23 04:21:29;;;;;;;3.33;2.33;;;;;;;6.59;90.48;96652.12;1736813;83;21509;-90
2020/12/23 04:23:56;;;;;;;3.20;1.90;;;;;;;6.58;90.51;96651.05;1736746;83;21474;-89
2020/12/23 04:26:23;;;;;;;2.45;2.15;;;;;;;6.58;90.58;96653.17;1736869;83;21133;-90
2020/12/23 04:28:49;;;;;;;1.70;1.60;;;;;;;6.59;90.68;96650.01;1736999;83;21172;-90
2020/12/23 04:31:16;;;;;;;4.53;1.90;;;;;;;6.61;90.82;96655.81;1736921;82;21158;-89
2020/12/23 04:33:43;;;;;;;2.52;2.20;;;;;;;6.63;90.84;96659.81;1737171;83;21308;-89
2020/12/23 04:36:10;;;;;;;2.35;1.67;;;;;;;6.65;90.86;96667.46;1737028;82;21134;-89
2020/12/23 04:38:37;;;;;;;3.15;2.30;;;;;;;6.65;90.92;96652.97;1736958;83;21506;-89
2020/12/23 04:41:04;;;;;;;2.95;1.95;;;;;;;6.69;90.99;96679.88;1736946;83;21517;-89
2020/12/23 04:43:31;;;;;;;3.47;2.20;;;;;;;6.70;90.94;96666.97;1736927;83;21494;-89
2020/12/23 04:45:58;;;;;;;3.02;2.33;;;;;;;6.72;90.94;96682.00;1736871;83;21131;-89
2020/12/23 04:48:26;;;;;;;3.55;2.20;;;;;;;6.72;90.89;96678.05;1736499;82;21148;-90
2020/12/23 04:50:56;;;;;;;2.87;2.30;;;;;;;6.71;90.83;96669.08;1736428;81;21142;-90
2020/12/23 04:53:24;;;;;;;;;;;;;;;6.70;90.95;96655.64;1738653;83;21478;-90
2020/12/23 04:55:51;;;;;;;2.17;1.85;;;;;;;6.67;90.97;96661.41;1766121;81;20107;-89
2020/12/23 04:58:18;;;;;;;4.65;2.30;;;;;;;6.66;90.94;96654.56;1749630;82;21181;-89
2020/12/23 05:00:45;;;;;;;3.08;2.05;;;;;;;6.63;91.10;96653.23;1735827;83;21292;-90
2020/12/23 05:03:12;;;;;;;3.30;1.82;;;;;;;6.60;91.26;96648.44;1735906;82;21641;-89
2020/12/23 05:05:39;;;;;;;3.75;2.25;;;;;;;6.58;91.47;96658.44;1735886;82;21150;-89
2020/12/23 05:08:06;;;;;;;2.92;2.30;;;;;;;6.53;91.63;96655.77;1735841;83;21545;-89
2020/12/23 05:10:33;;;;;;;4.12;2.85;;;;;;;6.48;91.73;96655.22;1735921;82;21301;-89
2020/12/23 05:13:00;;;;;;;3.52;2.60;;;;;;;6.46;91.73;96651.22;1735890;83;21272;-90
2020/12/23 05:15:27;;;;;;;2.50;2.30;;;;;;;6.46;92.01;96649.91;1735813;83;21284;-89
2020/12/23 05:17:54;;;;;;;3.60;2.52;;;;;;;6.45;91.92;96660.95;1708864;83;21143;-90
2020/12/23 05:20:20;;;;;;;4.30;2.35;;;;;;;6.45;92.16;96661.48;1736496;81;21497;-88
2020/12/23 05:22:49;;;;;;;4.20;2.58;;;;;;;6.46;92.24;96663.86;1735968;82;21631;-90
2020/12/23 05:25:18;;;;;;;5.15;2.30;;;;;;;6.47;92.09;96670.72;1736004;82;21146;-90
2020/12/23 05:27:49;;;;;;;4.47;3.00;;;;;;;6.48;92.19;96664.44;1735907;82;21635;-89
2020/12/23 05:30:19;;;;;;;3.00;2.12;;;;;;;6.47;92.26;96672.56;1735959;82;21119;-89
2020/12/23 05:32:47;;;;;;;2.98;2.50;;;;;;;6.45;92.38;96666.23;1736021;83;21173;-89
2020/12/23 05:35:16;;;;;;;3.37;2.20;;;;;;;6.47;92.36;96668.08;1736022;83;21146;-89
2020/12/23 05:37:44;;;;;;;3.05;2.25;;;;;;;6.50;92.42;96674.72;1735825;82;21174;-90
2020/12/23 05:40:12;;;;;;;3.27;2.27;;;;;;;6.55;92.44;96678.70;1736008;82;21192;-89
2020/12/23 05:42:40;;;;;;;3.17;2.60;;;;;;;6.57;92.33;96685.03;1735871;83;21245;-89
2020/12/23 05:45:08;;;;;;;4.03;2.95;;;;;;;6.59;92.29;96677.66;1735758;83;21287;-89
2020/12/23 05:47:36;;;;;;;2.67;2.22;;;;;;;6.61;92.22;96675.05;1735815;82;21280;-89
2020/12/23 05:50:10;;;;;;;2.70;2.37;;;;;;;6.63;92.12;96664.29;1739077;81;21288;-89
2020/12/23 05:52:37;;;;;;;3.55;2.30;;;;;;;6.61;92.08;96656.61;1738848;82;21244;-90
2020/12/23 05:55:17;;;;;;;3.42;2.08;;;;;;;6.56;92.14;96659.21;1738701;82;21482;-89
2020/12/23 05:57:44;;;;;;;3.60;2.40;;;;;;;6.56;92.09;96659.21;1738599;82;21252;-90
2020/12/23 06:00:12;;;;;;;3.10;2.22;;;;;;;6.59;92.16;96651.33;1738776;82;21508;-89
2020/12/23 06:03:13;;;;;;;2.55;1.70;;;;;;;6.60;92.17;96655.02;1738724;82;21279;-89
2020/12/23 06:05:44;;;;;;;4.33;2.33;;;;;;;6.60;92.25;96655.55;1738325;82;21161;-89
2020/12/23 06:08:13;;;;;;;3.42;2.30;;;;;;;6.56;92.25;96659.21;1738692;82;21296;-90
2020/12/23 06:10:41;;;;;;;4.20;2.80;;;;;;;6.55;92.34;96666.32;1738533;82;21134;-89
2020/12/23 06:13:12;;;;;;;3.92;2.60;;;;;;;6.62;92.53;96664.02;1713755;82;21138;-90
2020/12/23 06:15:42;;;;;;;4.60;2.85;;;;;;;6.64;92.52;96663.23;1738909;82;21257;-89
2020/12/23 06:18:17;;;;;;;3.50;2.85;;;;;;;6.64;92.52;96661.92;1738788;82;21141;-89
2020/12/23 06:20:46;;;;;;;3.00;2.55;;;;;;;6.64;92.56;96665.88;1709817;82;21102;-89
2020/12/23 06:23:18;;;;;;;3.22;2.50;;;;;;;6.66;93.04;96654.56;1709530;84;21563;-89
2020/12/23 06:25:48;;;;;;;5.78;3.60;;;;;;;6.67;93.46;96650.88;1708433;84;21158;-89
2020/12/23 06:28:21;;;;;;;3.47;2.65;;;;;;;6.65;93.32;96639.28;1685269;84;21154;-90
2020/12/23 06:30:52;;;;;;;3.50;3.00;;;;;;;6.63;93.35;96632.68;1709372;84;21486;-89
2020/12/23 06:33:21;;;;;;;3.75;3.05;;;;;;;6.62;93.72;96635.05;1709448;84;21154;-89
2020/12/23 06:35:49;;;;;;;6.10;3.55;;;;;;;6.63;93.90;96628.20;1709272;84;21490;-89
2020/12/23 06:38:23;;;;;;;4.05;2.80;;;;;;;6.67;93.99;96625.85;1709362;84;21162;-89
2020/12/23 06:41:04;;;;;;;3.30;2.67;;;;;;;6.76;94.02;96625.66;1810953;79;22917;-88
2020/12/23 06:44:01;;;;;;;4.60;3.08;;;;;;;6.75;94.00;96634.59;1761062;81;21145;-88
2020/12/23 06:46:50;;;;;;;5.42;3.25;;;;;;;6.78;93.91;96640.17;1760991;81;21144;-90
2020/12/23 06:49:17;;;;;;;5.45;3.12;;;;;;;6.80;93.92;96649.13;1780285;80;21471;-89
2020/12/23 06:51:44;;;;;;;6.28;2.98;;;;;;;6.81;93.83;96650.72;1792369;80;21321;-89
2020/12/23 06:54:17;;;;;;;3.72;2.67;;;;;;;6.81;93.90;96656.78;1792448;79;21143;-90
2020/12/23 06:56:47;;;;;;;3.27;2.60;;;;;;;6.82;93.79;96656.26;1785775;80;21136;-89
2020/12/23 06:59:28;;;;;;;3.12;2.40;;;;;;;6.82;93.80;96650.47;1792295;80;21511;-89
2020/12/23 07:02:14;;;;;;;3.98;2.87;;;;;;;6.89;93.77;96662.09;1878116;76;22766;-87
2020/12/23 07:04:49;;;;;;;4.47;2.72;;;;;;;6.87;93.72;96659.44;1819664;79;21269;-88
2020/12/23 07:07:38;;;;;;;4.80;3.17;;;;;;;6.86;93.78;96663.92;1819082;79;21123;-88
2020/12/23 07:10:20;;;;;;;3.92;3.05;;;;;;;6.88;93.92;96665.78;1851395;77;21173;-89
2020/12/23 07:12:58;;;;;;;4.92;3.40;;;;;;;6.89;93.80;96659.98;1852865;77;21265;-89
2020/12/23 07:15:29;;;;;;;11.50;7.85;;;;;;;6.87;93.86;96667.34;1852647;77;21159;-89
2020/12/23 07:18:16;;;;;;;6.20;4.42;;;;;;;6.85;93.91;96674.98;1852602;77;21108;-89
2020/12/23 07:20:59;;;;;;;5.20;3.35;;;;;;;6.84;93.89;96668.13;1818584;79;21139;-89
2020/12/23 07:23:31;;;;;;;4.17;3.27;;;;;;;6.83;94.01;96664.44;1819363;79;21115;-89
2020/12/23 07:26:05;;;;;;;4.25;2.75;;;;;;;6.83;94.13;96657.84;1818892;79;21494;-89
2020/12/23 07:28:40;;;;;;;2.62;2.15;;;;;;;6.85;94.36;96664.45;1819387;79;21156;-90
2020/12/23 07:31:11;;;;;;;4.20;3.05;;;;;;;6.84;94.57;96672.61;1819317;79;21111;-89
2020/12/23 07:33:39;;;;;;;4.23;2.60;;;;;;;6.87;94.72;96676.05;1819594;79;21095;-89
2020/12/23 07:36:08;;;;;;;4.37;2.12;;;;;;;6.88;94.91;96675.00;1819288;79;21482;-90
2020/12/23 07:38:38;;;;;;;5.15;3.00;;;;;;;6.89;94.95;96677.91;1819303;79;21147;-90
2020/12/23 07:41:06;;;;;;;4.45;2.67;;;;;;;6.91;94.96;96679.79;1819453;79;21495;-90
2020/12/23 07:43:33;;;;;;;3.27;2.40;;;;;;;6.91;95.01;96677.16;1819350;79;21130;-90
2020/12/23 07:46:00;;;;;;;4.22;2.20;;;;;;;6.92;94.99;96681.38;1819449;79;21502;-90
2020/12/23 07:48:28;;;;;;;3.80;2.55;;;;;;;6.91;94.97;96680.31;1819326;79;21164;-90
2020/12/23 07:50:58;;;;;;;3.25;2.17;;;;;;;6.93;94.97;96685.59;1847502;77;21439;-89
2020/12/23 07:53:30;;;;;;;4.58;2.85;;;;;;;6.95;94.85;96680.07;1852770;77;21104;-90
2020/12/23 07:56:05;;;;;;;3.67;2.42;;;;;;;6.97;94.77;96679.29;1852610;77;21128;-90
2020/12/23 07:58:36;;;;;;;6.60;3.62;;;;;;;6.99;94.66;96689.84;1852820;77;21088;-90
2020/12/23 08:01:10;;;;;;;8.58;4.53;;;;;;;7.02;94.65;96681.42;1852678;77;21535;-90
2020/12/23 08:03:37;;;;;;;5.67;3.25;;;;;;;7.01;94.59;96678.52;1853169;77;21254;-89
2020/12/23 08:06:12;;;;;;;7.72;3.60;;;;;;;7.00;94.51;96674.30;1852821;77;21281;-89
2020/12/23 08:08:43;;;;;;;14.53;6.25;;;;;;;7.00;94.44;96672.19;1852940;77;21294;-89
2020/12/23 08:11:15;;;;;;;13.95;6.00;;;;;;;6.99;94.42;96666.12;1853133;77;21269;-90
2020/12/23 08:13:44;;;;;;;4.97;3.08;;;;;;;6.96;94.40;96662.69;1852282;77;21165;-89
2020/12/23 08:16:15;;;;;;;3.65;2.58;;;;;;;6.91;94.59;96658.70;1852370;77;21115;-91
2020/12/23 08:18:44;;;;;;;4.05;2.00;;;;;;;6.91;94.79;96649.48;1852329;77;21135;-89
2020/12/23 08:21:17;;;;;;;3.12;1.75;;;;;;;6.93;94.89;96644.75;1851902;77;21143;-89
2020/12/23 08:23:47;;;;;;;3.25;1.80;;;;;;;6.97;95.23;96644.50;1852377;77;21135;-90
2020/12/23 08:26:16;;;;;;;1.90;1.32;;;;;;;7.02;95.30;96645.05;1852485;77;21111;-89
2020/12/23 08:28:45;;;;;;;4.42;2.30;;;;;;;7.04;95.41;96655.63;1852529;77;21096;-89
2020/12/23 08:31:25;;;;;;;3.70;2.05;;;;;;;7.05;95.50;96659.86;1852270;77;21475;-89
2020/12/23 08:34:00;;;;;;;3.02;2.10;;;;;;;7.05;95.58;96663.81;1852616;77;21448;-89
2020/12/23 08:36:30;;;;;;;2.20;1.62;;;;;;;7.04;95.66;96655.63;1852471;77;21148;-91
2020/12/23 08:38:58;;;;;;;2.75;2.00;;;;;;;7.06;95.78;96658.02;1852352;77;21149;-89
2020/12/23 08:41:27;;;;;;;2.42;1.77;;;;;;;7.06;96.05;96658.80;1852606;77;21527;-90
2020/12/23 08:43:55;;;;;;;2.30;2.00;;;;;;;7.10;96.31;96665.15;1852437;77;21151;-90
2020/12/23 08:46:28;;;;;;;2.45;1.80;;;;;;;7.14;96.42;96656.20;1852180;77;21151;-90
2020/12/23 08:48:57;;;;;;;2.62;1.62;;;;;;;7.20;96.52;96659.16;1852073;77;21099;-90
2020/12/23 08:51:27;;;;;;;2.47;1.60;;;;;;;7.23;96.50;96661.80;1852392;77;21135;-91
2020/12/23 08:53:55;;;;;;;2.40;1.80;;;;;;;7.24;96.38;96659.43;1852539;77;21273;-89
2020/12/23 08:56:29;;;;;;;1.75;1.60;;;;;;;7.24;96.57;96666.02;1852142;77;21154;-89
2020/12/23 08:59:04;;;;;;;2.52;1.72;;;;;;;7.24;96.58;96667.34;1852240;77;21152;-90
2020/12/23 09:01:34;;;;;;;3.08;2.02;;;;;;;7.24;96.54;96659.43;1852026;77;21185;-90
2020/12/23 09:04:09;;;;;;;2.67;1.80;;;;;;;7.28;96.46;96658.66;1852101;77;21092;-90
2020/12/23 09:06:49;;;;;;;1.57;1.30;;;;;;;7.29;96.35;96660.77;1851822;77;21258;-90
2020/12/23 09:09:22;;;;;;;2.15;1.70;;;;;;;7.29;96.35;96660.77;1849070;77;21157;-90
2020/12/23 09:11:58;;;;;;;2.20;1.45;;;;;;;7.31;96.31;96663.94;1801305;80;21134;-90
2020/12/23 09:14:36;;;;;;;2.08;1.40;;;;;;;7.32;96.23;96657.12;1792509;80;21596;-89
2020/12/23 09:17:24;;;;;;;1.45;1.35;;;;;;;7.33;96.19;96659.23;1792370;80;21100;-90
2020/12/23 09:20:01;;;;;;;1.98;1.67;;;;;;;7.34;96.04;96656.86;1792077;80;21499;-89
2020/12/23 09:22:39;;;;;;;2.87;2.37;;;;;;;7.34;96.04;96656.33;1792359;80;21530;-89
2020/12/23 09:25:22;;;;;;;2.87;1.90;;;;;;;7.35;95.99;96652.64;1792492;80;21084;-90
2020/12/23 09:27:55;;;;;;;3.50;1.85;;;;;;;7.34;95.99;96658.17;1792430;79;21135;-89
2020/12/23 09:30:44;;;;;;;3.25;1.62;;;;;;;7.35;96.06;96651.84;1792372;80;21115;-90
2020/12/23 09:33:18;;;;;;;2.15;1.77;;;;;;;7.35;96.05;96648.69;1792376;80;21088;-89
2020/12/23 09:35:52;;;;;;;2.80;1.95;;;;;;;7.35;96.05;96643.41;1792465;80;21636;-90
2020/12/23 09:38:27;;;;;;;2.33;2.00;;;;;;;7.33;96.05;96644.72;1792321;80;21137;-89
2020/12/23 09:40:59;;;;;;;3.17;1.92;;;;;;;7.36;96.07;96646.84;1792817;79;21522;-90
2020/12/23 09:43:30;;;;;;;3.50;2.10;;;;;;;7.37;96.03;96652.38;1792352;80;21277;-90
2020/12/23 09:46:02;;;;;;;2.65;2.20;;;;;;;7.40;96.02;96653.18;1792559;79;21265;-89
2020/12/23 09:48:29;;;;;;;4.00;2.12;;;;;;;7.41;96.05;96649.49;1792313;79;21277;-90
2020/12/23 09:50:57;;;;;;;2.85;2.12;;;;;;;7.47;96.03;96655.61;1792048;79;21559;-89
2020/12/23 09:53:26;;;;;;;2.77;2.37;;;;;;;7.48;95.96;96654.55;1764082;80;21135;-89
2020/12/23 09:55:55;;;;;;;3.50;2.65;;;;;;;7.47;95.95;96649.80;1792683;80;21257;-89
2020/12/23 09:58:23;;;;;;;3.92;2.58;;;;;;;7.49;95.91;96647.70;1792240;80;21274;-90
2020/12/23 10:00:52;;;;;;;3.60;2.85;;;;;;;7.50;95.93;96641.37;1792379;79;21510;-89
2020/12/23 10:03:19;;;;;;;5.90;3.20;;;;;;;7.44;95.98;96644.48;1792424;79;21092;-90
2020/12/23 10:05:48;;;;;;;3.98;2.98;;;;;;;7.38;95.98;96638.94;1792706;79;21152;-90
2020/12/23 10:08:15;;;;;;;5.15;2.98;;;;;;;7.35;95.98;96638.66;1792319;79;21311;-89
2020/12/23 10:10:43;;;;;;;4.42;2.62;;;;;;;7.30;96.00;96630.70;1792493;79;21151;-90
2020/12/23 10:13:10;;;;;;;4.53;2.70;;;;;;;7.31;95.97;96632.30;1792375;80;21506;-90
2020/12/23 10:15:37;;;;;;;3.50;2.58;;;;;;;7.29;96.03;96622.53;1792360;80;21281;-90
2020/12/23 10:18:04;;;;;;;5.85;3.05;;;;;;;7.31;96.15;96615.95;1792453;79;21135;-89
2020/12/23 10:20:32;;;;;;;3.72;2.25;;;;;;;7.33;96.07;96610.44;1791953;80;21327;-89
2020/12/23 10:22:59;;;;;;;4.70;2.90;;;;;;;7.35;96.09;96614.93;1792331;80;21293;-89
2020/12/23 10:25:29;;;;;;;4.37;3.10;;;;;;;7.35;96.05;96609.66;1792633;80;21144;-90
2020/12/23 10:27:55;;;;;;;5.08;3.20;;;;;;;7.33;96.08;96613.87;1792446;79;21305;-90
2020/12/23 10:30:23;;;;;;;5.17;3.10;;;;;;;7.36;96.20;96615.98;1792527;80;21281;-89
2020/12/23 10:32:50;;;;;;;4.78;2.80;;;;;;;7.35;96.23;96617.04;1792365;80;21543;-89
2020/12/23 10:35:17;;;;;;;3.52;2.52;;;;;;;7.35;96.23;96616.25;1792306;79;21274;-89
2020/12/23 10:37:44;;;;;;;2.67;2.20;;;;;;;7.34;96.23;96609.39;1792356;79;21252;-90
2020/12/23 10:40:11;;;;;;;2.42;1.80;;;;;;;7.36;96.27;96621.27;1792579;80;21139;-90
2020/12/23 10:42:38;;;;;;;2.22;2.00;;;;;;;7.38;96.33;96613.09;1792282;79;21282;-90
2020/12/23 10:45:07;;;;;;;3.75;2.25;;;;;;;7.38;96.27;96615.20;1792378;80;21159;-89
2020/12/23 10:47:34;;;;;;;3.52;2.42;;;;;;;7.39;96.36;96605.44;1792360;80;21131;-90
2020/12/23 10:50:01;;;;;;;3.40;2.22;;;;;;;7.42;96.27;96607.56;1791829;80;21289;-90
2020/12/23 10:52:29;;;;;;;3.02;2.25;;;;;;;7.43;96.21;96603.88;1792510;80;21135;-91
2020/12/23 10:54:56;;;;;;;3.95;2.67;;;;;;;7.44;96.27;96601.50;1792253;80;21142;-90
2020/12/23 10:57:24;;;;;;;7.83;5.45;;;;;;;7.41;96.30;96602.02;1792379;80;21472;-90
2020/12/23 10:59:51;;;;;;;15.75;11.08;;;;;;;7.39;96.35;96598.85;1792302;80;21596;-90
2020/12/23 11:02:18;;;;;;;11.48;6.42;;;;;;;7.40;96.40;96588.04;1792310;80;21529;-89
2020/12/23 11:04:46;;;;;;;9.43;4.78;;;;;;;7.41;96.41;96590.15;1792293;80;21124;-90
2020/12/23 11:07:13;;;;;;;3.47;2.52;;;;;;;7.40;96.51;96597.80;1792306;79;21277;-90
2020/12/23 11:09:40;;;;;;;3.62;2.50;;;;;;;7.35;96.68;96593.30;1792379;79;21139;-90
2020/12/23 11:12:07;;;;;;;3.87;2.87;;;;;;;7.34;96.70;96597.52;1792605;79;21497;-89
2020/12/23 11:14:34;;;;;;;5.22;3.17;;;;;;;7.35;96.58;96598.58;1792381;79;21144;-89
2020/12/23 11:17:01;;;;;;;5.03;3.25;;;;;;;7.37;96.54;96594.36;1792284;80;21298;-89
2020/12/23 11:19:28;;;;;;;4.50;2.55;;;;;;;7.39;96.55;96593.58;1791994;80;21143;-90
2020/12/23 11:21:55;;;;;;;4.50;2.55;;;;;;;7.41;96.49;96594.11;1792387;79;21174;-90
2020/12/23 11:24:23;;;;;;;4.30;3.12;;;;;;;7.42;96.37;96594.37;1792280;79;21281;-90
2020/12/23 11:26:50;;;;;;;6.10;3.15;;;;;;;7.44;96.27;96588.31;1792476;80;21249;-90
2020/12/23 11:29:17;;;;;;;3.37;2.65;;;;;;;7.47;96.33;96583.86;1792566;79;21113;-90
2020/12/23 11:31:44;;;;;;;4.22;2.80;;;;;;;7.47;96.26;96590.98;1792620;80;21188;-90
2020/12/23 11:34:11;;;;;;;4.47;3.05;;;;;;;7.47;96.25;96597.05;1792262;80;21132;-90
2020/12/23 11:36:39;;;;;;;3.67;2.85;;;;;;;7.47;96.29;96606.28;1792365;79;21335;-89
2020/12/23 11:39:06;;;;;;;4.30;2.95;;;;;;;7.44;96.25;96598.86;1792286;79;21282;-91
2020/12/23 11:41:33;;;;;;;6.00;2.77;;;;;;;7.48;96.29;96596.52;1792678;79;21471;-89
2020/12/23 11:44:00;;;;;;;5.08;3.40;;;;;;;7.51;96.34;96595.47;1792273;79;21265;-89
2020/12/23 11:46:29;;;;;;;5.10;3.00;;;;;;;7.52;96.27;96593.09;1792323;80;21506;-90
2020/12/23 11:48:57;;;;;;;5.08;3.22;;;;;;;7.56;96.29;96593.37;1792015;79;21556;-91
2020/12/23 11:51:25;;;;;;;3.60;2.27;;;;;;;7.58;96.28;96589.94;1792662;79;21139;-90